sensor_id;sensor_type;location;lat;lon;timestamp;P1;durP1;ratioP1;P2;durP2;ratioP2
5912;SDS011;2982;42.684;23.356;2024-01-10T01:06:33;1.47;;;1.20;;
5912;SDS011;2982;42.684;23.356;2024-01-10T01:09:14;2.90;;;1.60;;
5912;SDS011;2982;42.684;23.356;2024-01-10T01:11:54;1.47;;;1.37;;
5912;SDS011;2982;42.684;23.356;2024-01-10T01:14:28;2.57;;;1.43;;
5912;SDS011;2982;42.684;23.356;2024-01-10T01:16:55;1.67;;;1.57;;
5912;SDS011;2982;42.684;23.356;2024-01-10T01:19:23;1.80;;;1.50;;
5912;SDS011;2982;42.684;23.356;2024-01-10T01:21:49;1.70;;;1.60;;
5912;SDS011;2982;42.684;23.356;2024-01-10T01:24:53;1.20;;;1.10;;
5912;SDS011;2982;42.684;23.356;2024-01-10T01:27:20;1.23;;;1.13;;
5912;SDS011;2982;42.684;23.356;2024-01-10T01:29:49;1.57;;;1.40;;
5912;SDS011;2982;42.684;23.356;2024-01-10T01:32:15;1.43;;;1.30;;
5912;SDS011;2982;42.684;23.356;2024-01-10T01:34:44;1.87;;;1.50;;
5912;SDS011;2982;42.684;23.356;2024-01-10T01:37:55;1.53;;;1.43;;
5912;SDS011;2982;42.684;23.356;2024-01-10T01:40:20;1.73;;;1.63;;
5912;SDS011;2982;42.684;23.356;2024-01-10T01:42:49;3.03;;;2.23;;
5912;SDS011;2982;42.684;23.356;2024-01-10T01:45:15;1.80;;;1.60;;
5912;SDS011;2982;42.684;23.356;2024-01-10T01:47:46;2.87;;;2.00;;
5912;SDS011;2982;42.684;23.356;2024-01-10T01:50:14;2.07;;;1.53;;
5912;SDS011;2982;42.684;23.356;2024-01-10T01:52:42;1.77;;;1.63;;
5912;SDS011;2982;42.684;23.356;2024-01-10T01:55:31;4.27;;;1.67;;
5912;SDS011;2982;42.684;23.356;2024-01-10T01:58:20;1.30;;;1.20;;
5912;SDS011;2982;42.684;23.356;2024-01-10T02:01:08;2.07;;;1.70;;
5912;SDS011;2982;42.684;23.356;2024-01-10T02:03:38;2.47;;;1.93;;
5912;SDS011;2982;42.684;23.356;2024-01-10T02:06:15;3.03;;;1.93;;
5912;SDS011;2982;42.684;23.356;2024-01-10T02:09:26;2.60;;;1.97;;
5912;SDS011;2982;42.684;23.356;2024-01-10T02:12:23;2.00;;;1.90;;
5912;SDS011;2982;42.684;23.356;2024-01-10T02:15:10;3.33;;;1.97;;
5912;SDS011;2982;42.684;23.356;2024-01-10T02:18:06;2.93;;;1.50;;
5912;SDS011;2982;42.684;23.356;2024-01-10T02:20:56;2.17;;;1.50;;
5912;SDS011;2982;42.684;23.356;2024-01-10T02:23:46;1.33;;;1.23;;
5912;SDS011;2982;42.684;23.356;2024-01-10T03:28:42;3.67;;;2.47;;
5912;SDS011;2982;42.684;23.356;2024-01-10T03:31:21;1.93;;;1.70;;
5912;SDS011;2982;42.684;23.356;2024-01-10T03:34:08;3.07;;;2.20;;
5912;SDS011;2982;42.684;23.356;2024-01-10T03:37:17;2.23;;;1.90;;
5912;SDS011;2982;42.684;23.356;2024-01-10T03:40:04;4.50;;;1.67;;
5912;SDS011;2982;42.684;23.356;2024-01-10T03:42:52;2.40;;;2.00;;
5912;SDS011;2982;42.684;23.356;2024-01-10T03:45:21;1.70;;;1.60;;
5912;SDS011;2982;42.684;23.356;2024-01-10T03:48:07;1.30;;;1.20;;
5912;SDS011;2982;42.684;23.356;2024-01-10T03:50:38;5.37;;;1.93;;
5912;SDS011;2982;42.684;23.356;2024-01-10T03:53:05;6.30;;;2.07;;
5912;SDS011;2982;42.684;23.356;2024-01-10T03:55:49;2.33;;;2.13;;
5912;SDS011;2982;42.684;23.356;2024-01-10T03:58:36;2.10;;;1.90;;
5912;SDS011;2982;42.684;23.356;2024-01-10T04:01:28;1.97;;;1.73;;
5912;SDS011;2982;42.684;23.356;2024-01-10T04:04:29;2.20;;;2.00;;
5912;SDS011;2982;42.684;23.356;2024-01-10T04:07:16;1.83;;;1.67;;
5912;SDS011;2982;42.684;23.356;2024-01-10T05:45:48;5.37;;;3.30;;
5912;SDS011;2982;42.684;23.356;2024-01-10T06:06:44;2.20;;;1.30;;
5912;SDS011;2982;42.684;23.356;2024-01-10T17:01:04;18.63;;;9.93;;
5912;SDS011;2982;42.684;23.356;2024-01-10T17:09:29;24.73;;;11.53;;
5912;SDS011;2982;42.684;23.356;2024-01-10T17:12:16;28.90;;;12.87;;
5912;SDS011;2982;42.684;23.356;2024-01-10T17:14:41;20.63;;;12.97;;
5912;SDS011;2982;42.684;23.356;2024-01-10T17:20:02;20.47;;;11.40;;
5912;SDS011;2982;42.684;23.356;2024-01-10T17:23:11;13.97;;;10.13;;
5912;SDS011;2982;42.684;23.356;2024-01-10T17:25:38;24.20;;;10.70;;
5912;SDS011;2982;42.684;23.356;2024-01-10T17:28:07;31.43;;;11.60;;
5912;SDS011;2982;42.684;23.356;2024-01-10T17:30:58;24.70;;;10.60;;
5912;SDS011;2982;42.684;23.356;2024-01-10T17:34:10;24.03;;;11.60;;
5912;SDS011;2982;42.684;23.356;2024-01-10T17:36:39;25.40;;;10.93;;
5912;SDS011;2982;42.684;23.356;2024-01-10T17:42:04;20.47;;;11.37;;
5912;SDS011;2982;42.684;23.356;2024-01-10T17:44:50;32.97;;;13.13;;
5912;SDS011;2982;42.684;23.356;2024-01-10T17:47:36;24.83;;;15.17;;
5912;SDS011;2982;42.684;23.356;2024-01-10T18:08:17;40.83;;;21.20;;
5912;SDS011;2982;42.684;23.356;2024-01-10T18:14:11;43.73;;;18.40;;
5912;SDS011;2982;42.684;23.356;2024-01-10T18:17:02;37.17;;;20.27;;
5912;SDS011;2982;42.684;23.356;2024-01-10T18:19:53;41.07;;;21.20;;
5912;SDS011;2982;42.684;23.356;2024-01-10T19:22:12;33.50;;;16.37;;
5912;SDS011;2982;42.684;23.356;2024-01-10T19:25:04;32.37;;;16.47;;
5912;SDS011;2982;42.684;23.356;2024-01-10T19:28:01;33.20;;;15.40;;
5912;SDS011;2982;42.684;23.356;2024-01-10T19:30:44;36.17;;;15.73;;
5912;SDS011;2982;42.684;23.356;2024-01-10T19:33:15;27.03;;;14.73;;
5912;SDS011;2982;42.684;23.356;2024-01-10T19:36:06;28.83;;;15.00;;
5912;SDS011;2982;42.684;23.356;2024-01-10T19:38:36;33.63;;;14.77;;
5912;SDS011;2982;42.684;23.356;2024-01-10T19:41:46;27.93;;;14.17;;
5912;SDS011;2982;42.684;23.356;2024-01-10T19:44:12;28.13;;;14.40;;
5912;SDS011;2982;42.684;23.356;2024-01-10T19:46:39;33.40;;;16.00;;
5912;SDS011;2982;42.684;23.356;2024-01-10T19:54:44;26.53;;;13.40;;
5912;SDS011;2982;42.684;23.356;2024-01-10T19:58:13;24.67;;;13.20;;
5912;SDS011;2982;42.684;23.356;2024-01-10T20:01:10;23.27;;;12.93;;
5912;SDS011;2982;42.684;23.356;2024-01-10T20:04:06;32.20;;;14.00;;
5912;SDS011;2982;42.684;23.356;2024-01-10T20:43:03;21.60;;;12.27;;
5912;SDS011;2982;42.684;23.356;2024-01-10T20:45:46;19.03;;;11.03;;
5912;SDS011;2982;42.684;23.356;2024-01-10T20:48:22;24.30;;;12.87;;
5912;SDS011;2982;42.684;23.356;2024-01-10T21:14:10;62.73;;;27.83;;
5912;SDS011;2982;42.684;23.356;2024-01-10T21:37:59;77.63;;;31.60;;
5912;SDS011;2982;42.684;23.356;2024-01-10T21:40:46;80.67;;;33.90;;
5912;SDS011;2982;42.684;23.356;2024-01-10T21:43:51;73.47;;;35.20;;
5912;SDS011;2982;42.684;23.356;2024-01-10T21:47:03;81.23;;;30.83;;
5912;SDS011;2982;42.684;23.356;2024-01-10T21:50:09;78.40;;;30.90;;
5912;SDS011;2982;42.684;23.356;2024-01-10T21:52:51;67.80;;;28.90;;
5912;SDS011;2982;42.684;23.356;2024-01-10T21:55:17;59.27;;;28.27;;
5912;SDS011;2982;42.684;23.356;2024-01-10T21:58:06;55.87;;;24.93;;
5912;SDS011;2982;42.684;23.356;2024-01-10T22:00:42;52.27;;;24.60;;
5912;SDS011;2982;42.684;23.356;2024-01-10T22:03:28;64.80;;;25.50;;
5912;SDS011;2982;42.684;23.356;2024-01-10T22:05:59;56.27;;;25.20;;
5912;SDS011;2982;42.684;23.356;2024-01-10T22:08:51;53.97;;;24.43;;
5912;SDS011;2982;42.684;23.356;2024-01-10T22:11:27;52.70;;;23.07;;
5912;SDS011;2982;42.684;23.356;2024-01-10T22:14:38;57.90;;;25.33;;
5912;SDS011;2982;42.684;23.356;2024-01-10T22:17:05;62.67;;;24.93;;
5912;SDS011;2982;42.684;23.356;2024-01-10T22:19:35;51.47;;;23.17;;
5912;SDS011;2982;42.684;23.356;2024-01-10T22:22:02;49.93;;;24.50;;
5912;SDS011;2982;42.684;23.356;2024-01-10T22:24:28;51.17;;;23.70;;
5912;SDS011;2982;42.684;23.356;2024-01-10T22:26:57;47.87;;;23.37;;
5912;SDS011;2982;42.684;23.356;2024-01-10T22:29:32;52.83;;;23.17;;
5912;SDS011;2982;42.684;23.356;2024-01-10T22:32:04;47.57;;;23.20;;
5912;SDS011;2982;42.684;23.356;2024-01-10T22:34:30;47.53;;;23.13;;
5912;SDS011;2982;42.684;23.356;2024-01-10T22:37:13;45.90;;;21.77;;
5912;SDS011;2982;42.684;23.356;2024-01-10T22:40:00;46.67;;;23.50;;
5912;SDS011;2982;42.684;23.356;2024-01-10T22:42:53;50.60;;;21.10;;
5912;SDS011;2982;42.684;23.356;2024-01-10T22:46:10;47.93;;;20.00;;
5912;SDS011;2982;42.684;23.356;2024-01-10T22:49:21;49.53;;;21.53;;
5912;SDS011;2982;42.684;23.356;2024-01-10T22:51:47;48.77;;;20.23;;
5912;SDS011;2982;42.684;23.356;2024-01-10T22:54:32;45.60;;;19.70;;
5912;SDS011;2982;42.684;23.356;2024-01-10T22:56:59;43.67;;;20.13;;
5912;SDS011;2982;42.684;23.356;2024-01-10T22:59:33;37.97;;;18.10;;
5912;SDS011;2982;42.684;23.356;2024-01-10T23:02:26;40.80;;;17.93;;
5912;SDS011;2982;42.684;23.356;2024-01-10T23:05:36;42.80;;;19.13;;
5912;SDS011;2982;42.684;23.356;2024-01-10T23:08:28;41.93;;;16.33;;
5912;SDS011;2982;42.684;23.356;2024-01-10T23:11:35;45.50;;;18.60;;
5912;SDS011;2982;42.684;23.356;2024-01-10T23:14:42;39.27;;;19.13;;
5912;SDS011;2982;42.684;23.356;2024-01-10T23:17:30;35.70;;;17.73;;
5912;SDS011;2982;42.684;23.356;2024-01-10T23:20:27;35.77;;;16.60;;
5912;SDS011;2982;42.684;23.356;2024-01-10T23:23:14;38.00;;;17.60;;
5912;SDS011;2982;42.684;23.356;2024-01-10T23:25:48;37.77;;;17.13;;
5912;SDS011;2982;42.684;23.356;2024-01-10T23:28:44;31.97;;;16.70;;
5912;SDS011;2982;42.684;23.356;2024-01-10T23:31:17;38.47;;;17.47;;
5912;SDS011;2982;42.684;23.356;2024-01-10T23:33:46;29.53;;;15.27;;
5912;SDS011;2982;42.684;23.356;2024-01-10T23:36:49;28.07;;;15.57;;
5912;SDS011;2982;42.684;23.356;2024-01-10T23:39:22;32.63;;;15.17;;
5912;SDS011;2982;42.684;23.356;2024-01-10T23:42:30;35.63;;;14.93;;
5912;SDS011;2982;42.684;23.356;2024-01-10T23:45:25;30.03;;;14.57;;
5912;SDS011;2982;42.684;23.356;2024-01-10T23:48:22;29.70;;;13.33;;
5912;SDS011;2982;42.684;23.356;2024-01-10T23:51:16;23.53;;;13.50;;
5912;SDS011;2982;42.684;23.356;2024-01-10T23:54:23;24.63;;;13.10;;
5912;SDS011;2982;42.684;23.356;2024-01-10T23:57:10;29.27;;;14.37;;
